sensor_id;sensor_type;location;lat;lon;timestamp;P1;durP1;ratioP1;P2;durP2;ratioP2
32236;SDS011;18726;44.732;10.550;2024-02-21T00:01:25;56.60;;;41.53;;
32236;SDS011;18726;44.732;10.550;2024-02-21T00:04:28;47.50;;;34.38;;
32236;SDS011;18726;44.732;10.550;2024-02-21T00:07:32;57.50;;;40.80;;
32236;SDS011;18726;44.732;10.550;2024-02-21T00:10:36;56.60;;;42.40;;
32236;SDS011;18726;44.732;10.550;2024-02-21T00:13:40;54.80;;;39.75;;
32236;SDS011;18726;44.732;10.550;2024-02-21T00:16:44;62.70;;;45.40;;
32236;SDS011;18726;44.732;10.550;2024-02-21T00:19:48;58.65;;;42.97;;
32236;SDS011;18726;44.732;10.550;2024-02-21T00:22:51;67.25;;;48.95;;
32236;SDS011;18726;44.732;10.550;2024-02-21T00:25:55;65.68;;;47.95;;
32236;SDS011;18726;44.732;10.550;2024-02-21T00:28:59;67.35;;;48.35;;
32236;SDS011;18726;44.732;10.550;2024-02-21T00:32:02;74.70;;;51.22;;
32236;SDS011;18726;44.732;10.550;2024-02-21T00:35:06;71.38;;;45.80;;
32236;SDS011;18726;44.732;10.550;2024-02-21T00:38:10;59.30;;;43.50;;
32236;SDS011;18726;44.732;10.550;2024-02-21T00:41:14;58.35;;;45.42;;
32236;SDS011;18726;44.732;10.550;2024-02-21T00:44:18;56.70;;;42.53;;
32236;SDS011;18726;44.732;10.550;2024-02-21T00:47:21;51.65;;;37.28;;
32236;SDS011;18726;44.732;10.550;2024-02-21T00:50:25;53.13;;;38.65;;
32236;SDS011;18726;44.732;10.550;2024-02-21T00:53:29;65.68;;;47.75;;
32236;SDS011;18726;44.732;10.550;2024-02-21T00:56:32;78.45;;;58.63;;
32236;SDS011;18726;44.732;10.550;2024-02-21T00:59:37;62.22;;;46.70;;
32236;SDS011;18726;44.732;10.550;2024-02-21T01:02:41;50.85;;;39.60;;
32236;SDS011;18726;44.732;10.550;2024-02-21T01:05:44;71.65;;;50.97;;
32236;SDS011;18726;44.732;10.550;2024-02-21T01:08:48;54.67;;;39.35;;
32236;SDS011;18726;44.732;10.550;2024-02-21T01:11:52;56.42;;;43.33;;
32236;SDS011;18726;44.732;10.550;2024-02-21T01:14:56;63.97;;;48.50;;
32236;SDS011;18726;44.732;10.550;2024-02-21T01:18:00;53.90;;;40.22;;
32236;SDS011;18726;44.732;10.550;2024-02-21T01:21:03;47.60;;;36.00;;
32236;SDS011;18726;44.732;10.550;2024-02-21T01:24:10;52.30;;;41.05;;
32236;SDS011;18726;44.732;10.550;2024-02-21T01:27:13;56.40;;;43.35;;
32236;SDS011;18726;44.732;10.550;2024-02-21T01:30:17;50.17;;;40.28;;
32236;SDS011;18726;44.732;10.550;2024-02-21T01:33:21;49.22;;;39.08;;
32236;SDS011;18726;44.732;10.550;2024-02-21T01:36:24;42.97;;;34.50;;
32236;SDS011;18726;44.732;10.550;2024-02-21T01:39:28;42.75;;;32.72;;
32236;SDS011;18726;44.732;10.550;2024-02-21T01:42:31;46.03;;;35.75;;
32236;SDS011;18726;44.732;10.550;2024-02-21T01:45:35;38.50;;;29.52;;
32236;SDS011;18726;44.732;10.550;2024-02-21T01:48:38;35.50;;;29.17;;
32236;SDS011;18726;44.732;10.550;2024-02-21T01:51:42;50.58;;;38.38;;
32236;SDS011;18726;44.732;10.550;2024-02-21T01:54:47;54.80;;;40.38;;
32236;SDS011;18726;44.732;10.550;2024-02-21T01:57:51;43.45;;;31.17;;
32236;SDS011;18726;44.732;10.550;2024-02-21T02:00:56;49.40;;;38.08;;
32236;SDS011;18726;44.732;10.550;2024-02-21T02:04:00;40.13;;;30.83;;
32236;SDS011;18726;44.732;10.550;2024-02-21T02:07:04;47.85;;;35.60;;
32236;SDS011;18726;44.732;10.550;2024-02-21T02:10:10;50.72;;;36.10;;
32236;SDS011;18726;44.732;10.550;2024-02-21T02:13:14;45.90;;;36.22;;
32236;SDS011;18726;44.732;10.550;2024-02-21T02:16:18;55.08;;;39.85;;
32236;SDS011;18726;44.732;10.550;2024-02-21T02:19:22;54.05;;;38.88;;
32236;SDS011;18726;44.732;10.550;2024-02-21T02:22:28;50.20;;;38.15;;
32236;SDS011;18726;44.732;10.550;2024-02-21T02:25:33;51.10;;;39.85;;
32236;SDS011;18726;44.732;10.550;2024-02-21T02:28:36;50.10;;;39.35;;
32236;SDS011;18726;44.732;10.550;2024-02-21T02:31:40;54.50;;;42.15;;
32236;SDS011;18726;44.732;10.550;2024-02-21T02:34:43;63.10;;;43.28;;
32236;SDS011;18726;44.732;10.550;2024-02-21T02:37:47;59.50;;;42.75;;
32236;SDS011;18726;44.732;10.550;2024-02-21T02:40:53;67.55;;;46.13;;
32236;SDS011;18726;44.732;10.550;2024-02-21T02:43:56;57.58;;;39.38;;
32236;SDS011;18726;44.732;10.550;2024-02-21T02:46:59;56.83;;;38.88;;
32236;SDS011;18726;44.732;10.550;2024-02-21T02:50:04;47.97;;;35.67;;
32236;SDS011;18726;44.732;10.550;2024-02-21T02:53:08;53.33;;;37.85;;
32236;SDS011;18726;44.732;10.550;2024-02-21T02:56:15;58.85;;;41.85;;
32236;SDS011;18726;44.732;10.550;2024-02-21T02:59:19;55.55;;;39.50;;
32236;SDS011;18726;44.732;10.550;2024-02-21T03:02:22;61.75;;;45.35;;
32236;SDS011;18726;44.732;10.550;2024-02-21T03:05:26;57.55;;;43.53;;
32236;SDS011;18726;44.732;10.550;2024-02-21T03:08:30;55.88;;;41.28;;
32236;SDS011;18726;44.732;10.550;2024-02-21T03:11:35;43.80;;;33.55;;
32236;SDS011;18726;44.732;10.550;2024-02-21T03:14:40;45.65;;;32.85;;
32236;SDS011;18726;44.732;10.550;2024-02-21T03:17:43;46.17;;;30.98;;
32236;SDS011;18726;44.732;10.550;2024-02-21T03:20:47;41.60;;;32.55;;
32236;SDS011;18726;44.732;10.550;2024-02-21T03:23:51;38.10;;;28.70;;
32236;SDS011;18726;44.732;10.550;2024-02-21T03:26:54;37.17;;;30.02;;
32236;SDS011;18726;44.732;10.550;2024-02-21T03:29:58;37.28;;;27.63;;
32236;SDS011;18726;44.732;10.550;2024-02-21T03:33:02;32.05;;;26.60;;
32236;SDS011;18726;44.732;10.550;2024-02-21T03:36:06;33.90;;;24.90;;
32236;SDS011;18726;44.732;10.550;2024-02-21T03:39:10;40.20;;;30.15;;
32236;SDS011;18726;44.732;10.550;2024-02-21T03:42:14;36.20;;;27.55;;
32236;SDS011;18726;44.732;10.550;2024-02-21T03:45:18;38.35;;;28.85;;
32236;SDS011;18726;44.732;10.550;2024-02-21T03:48:21;50.42;;;35.10;;
32236;SDS011;18726;44.732;10.550;2024-02-21T03:51:24;37.67;;;28.05;;
32236;SDS011;18726;44.732;10.550;2024-02-21T03:54:28;41.15;;;31.20;;
32236;SDS011;18726;44.732;10.550;2024-02-21T03:57:32;41.70;;;32.35;;
32236;SDS011;18726;44.732;10.550;2024-02-21T04:00:35;44.08;;;31.92;;
32236;SDS011;18726;44.732;10.550;2024-02-21T04:03:39;35.97;;;28.08;;
32236;SDS011;18726;44.732;10.550;2024-02-21T04:06:48;36.47;;;28.52;;
32236;SDS011;18726;44.732;10.550;2024-02-21T04:09:53;41.90;;;34.35;;
32236;SDS011;18726;44.732;10.550;2024-02-21T04:12:57;40.75;;;30.67;;
32236;SDS011;18726;44.732;10.550;2024-02-21T04:16:01;40.08;;;30.70;;
32236;SDS011;18726;44.732;10.550;2024-02-21T04:19:04;38.67;;;31.02;;
32236;SDS011;18726;44.732;10.550;2024-02-21T04:22:08;46.20;;;33.35;;
32236;SDS011;18726;44.732;10.550;2024-02-21T04:25:12;41.53;;;30.27;;
32236;SDS011;18726;44.732;10.550;2024-02-21T04:28:15;31.90;;;26.73;;
32236;SDS011;18726;44.732;10.550;2024-02-21T04:31:19;48.65;;;37.60;;
32236;SDS011;18726;44.732;10.550;2024-02-21T04:34:23;51.03;;;36.42;;
32236;SDS011;18726;44.732;10.550;2024-02-21T04:37:26;46.85;;;35.80;;
32236;SDS011;18726;44.732;10.550;2024-02-21T04:40:30;46.30;;;33.38;;
32236;SDS011;18726;44.732;10.550;2024-02-21T04:43:34;48.78;;;37.58;;
32236;SDS011;18726;44.732;10.550;2024-02-21T04:46:38;49.25;;;38.33;;
32236;SDS011;18726;44.732;10.550;2024-02-21T04:49:46;53.72;;;43.20;;
32236;SDS011;18726;44.732;10.550;2024-02-21T04:52:49;62.30;;;42.97;;
32236;SDS011;18726;44.732;10.550;2024-02-21T04:55:53;69.45;;;45.15;;
32236;SDS011;18726;44.732;10.550;2024-02-21T04:58:56;59.97;;;45.05;;
32236;SDS011;18726;44.732;10.550;2024-02-21T05:02:00;59.03;;;43.70;;
32236;SDS011;18726;44.732;10.550;2024-02-21T05:05:04;52.88;;;41.08;;
32236;SDS011;18726;44.732;10.550;2024-02-21T05:08:07;38.72;;;30.55;;
32236;SDS011;18726;44.732;10.550;2024-02-21T05:11:13;57.55;;;40.63;;
32236;SDS011;18726;44.732;10.550;2024-02-21T05:14:17;39.78;;;30.77;;
32236;SDS011;18726;44.732;10.550;2024-02-21T05:17:21;43.90;;;32.20;;
32236;SDS011;18726;44.732;10.550;2024-02-21T05:20:24;47.28;;;36.78;;
32236;SDS011;18726;44.732;10.550;2024-02-21T05:23:28;50.10;;;35.97;;
32236;SDS011;18726;44.732;10.550;2024-02-21T05:26:31;38.38;;;28.70;;
32236;SDS011;18726;44.732;10.550;2024-02-21T05:29:36;35.35;;;27.45;;
32236;SDS011;18726;44.732;10.550;2024-02-21T05:32:40;43.53;;;30.10;;
32236;SDS011;18726;44.732;10.550;2024-02-21T05:35:44;35.75;;;26.48;;
32236;SDS011;18726;44.732;10.550;2024-02-21T05:38:48;37.75;;;29.35;;
32236;SDS011;18726;44.732;10.550;2024-02-21T05:41:51;51.42;;;37.85;;
32236;SDS011;18726;44.732;10.550;2024-02-21T05:44:55;47.90;;;35.35;;
32236;SDS011;18726;44.732;10.550;2024-02-21T05:47:58;50.03;;;36.65;;
32236;SDS011;18726;44.732;10.550;2024-02-21T05:51:02;43.10;;;33.72;;
32236;SDS011;18726;44.732;10.550;2024-02-21T05:54:06;47.88;;;35.25;;
32236;SDS011;18726;44.732;10.550;2024-02-21T05:57:10;34.55;;;25.70;;
32236;SDS011;18726;44.732;10.550;2024-02-21T06:00:14;42.50;;;30.60;;
32236;SDS011;18726;44.732;10.550;2024-02-21T06:03:18;44.60;;;33.17;;
32236;SDS011;18726;44.732;10.550;2024-02-21T06:06:41;46.63;;;35.58;;
32236;SDS011;18726;44.732;10.550;2024-02-21T06:09:45;52.38;;;35.83;;
32236;SDS011;18726;44.732;10.550;2024-02-21T06:12:49;46.08;;;31.80;;
32236;SDS011;18726;44.732;10.550;2024-02-21T06:15:52;47.30;;;34.90;;
32236;SDS011;18726;44.732;10.550;2024-02-21T06:18:56;56.80;;;37.40;;
32236;SDS011;18726;44.732;10.550;2024-02-21T06:21:59;54.72;;;38.40;;
32236;SDS011;18726;44.732;10.550;2024-02-21T06:25:03;50.10;;;36.08;;
32236;SDS011;18726;44.732;10.550;2024-02-21T06:28:07;38.58;;;26.83;;
32236;SDS011;18726;44.732;10.550;2024-02-21T06:31:11;41.15;;;28.95;;
32236;SDS011;18726;44.732;10.550;2024-02-21T06:34:15;43.75;;;29.65;;
32236;SDS011;18726;44.732;10.550;2024-02-21T06:37:19;31.00;;;25.95;;
32236;SDS011;18726;44.732;10.550;2024-02-21T06:40:22;33.78;;;26.92;;
32236;SDS011;18726;44.732;10.550;2024-02-21T06:43:26;30.17;;;21.88;;
32236;SDS011;18726;44.732;10.550;2024-02-21T06:46:29;27.13;;;22.75;;
32236;SDS011;18726;44.732;10.550;2024-02-21T06:49:33;32.85;;;24.95;;
32236;SDS011;18726;44.732;10.550;2024-02-21T06:52:37;32.13;;;27.05;;
32236;SDS011;18726;44.732;10.550;2024-02-21T06:55:41;29.92;;;23.77;;
32236;SDS011;18726;44.732;10.550;2024-02-21T06:58:45;33.80;;;25.88;;
32236;SDS011;18726;44.732;10.550;2024-02-21T07:01:49;32.83;;;27.00;;
32236;SDS011;18726;44.732;10.550;2024-02-21T07:04:54;30.13;;;23.83;;
32236;SDS011;18726;44.732;10.550;2024-02-21T07:07:58;23.42;;;19.83;;
32236;SDS011;18726;44.732;10.550;2024-02-21T07:11:02;22.95;;;19.10;;
32236;SDS011;18726;44.732;10.550;2024-02-21T07:14:06;19.73;;;17.65;;
32236;SDS011;18726;44.732;10.550;2024-02-21T07:17:09;21.20;;;17.58;;
32236;SDS011;18726;44.732;10.550;2024-02-21T07:20:13;18.63;;;14.57;;
32236;SDS011;18726;44.732;10.550;2024-02-21T07:23:17;25.23;;;22.75;;
32236;SDS011;18726;44.732;10.550;2024-02-21T07:26:21;36.10;;;25.77;;
32236;SDS011;18726;44.732;10.550;2024-02-21T07:29:25;30.42;;;26.73;;
32236;SDS011;18726;44.732;10.550;2024-02-21T07:32:28;33.95;;;29.90;;
32236;SDS011;18726;44.732;10.550;2024-02-21T07:35:31;25.85;;;23.38;;
32236;SDS011;18726;44.732;10.550;2024-02-21T07:38:35;31.42;;;28.13;;
32236;SDS011;18726;44.732;10.550;2024-02-21T07:41:39;22.40;;;19.38;;
32236;SDS011;18726;44.732;10.550;2024-02-21T07:44:45;18.20;;;16.38;;
32236;SDS011;18726;44.732;10.550;2024-02-21T07:47:48;19.70;;;17.90;;
32236;SDS011;18726;44.732;10.550;2024-02-21T07:50:52;22.70;;;20.38;;
32236;SDS011;18726;44.732;10.550;2024-02-21T07:53:56;26.33;;;23.83;;
32236;SDS011;18726;44.732;10.550;2024-02-21T07:57:00;33.03;;;29.65;;
32236;SDS011;18726;44.732;10.550;2024-02-21T08:00:04;34.67;;;29.27;;
32236;SDS011;18726;44.732;10.550;2024-02-21T08:03:15;23.88;;;21.65;;
32236;SDS011;18726;44.732;10.550;2024-02-21T08:06:20;21.90;;;17.40;;
32236;SDS011;18726;44.732;10.550;2024-02-21T08:09:24;23.90;;;20.35;;
32236;SDS011;18726;44.732;10.550;2024-02-21T08:12:28;22.23;;;20.17;;
32236;SDS011;18726;44.732;10.550;2024-02-21T08:15:31;21.08;;;18.92;;
32236;SDS011;18726;44.732;10.550;2024-02-21T08:18:36;21.92;;;17.70;;
32236;SDS011;18726;44.732;10.550;2024-02-21T08:21:41;15.43;;;13.82;;
32236;SDS011;18726;44.732;10.550;2024-02-21T08:24:45;17.25;;;15.45;;
32236;SDS011;18726;44.732;10.550;2024-02-21T08:27:49;30.17;;;27.20;;
32236;SDS011;18726;44.732;10.550;2024-02-21T08:30:54;36.72;;;32.95;;
32236;SDS011;18726;44.732;10.550;2024-02-21T08:33:58;45.55;;;41.42;;
32236;SDS011;18726;44.732;10.550;2024-02-21T08:37:08;53.03;;;47.75;;
32236;SDS011;18726;44.732;10.550;2024-02-21T08:40:14;40.85;;;37.13;;
32236;SDS011;18726;44.732;10.550;2024-02-21T08:43:20;22.20;;;19.90;;
32236;SDS011;18726;44.732;10.550;2024-02-21T08:46:25;19.20;;;17.38;;
32236;SDS011;18726;44.732;10.550;2024-02-21T08:49:29;18.45;;;13.27;;
32236;SDS011;18726;44.732;10.550;2024-02-21T08:52:34;15.98;;;14.32;;
32236;SDS011;18726;44.732;10.550;2024-02-21T08:55:37;14.07;;;12.63;;
32236;SDS011;18726;44.732;10.550;2024-02-21T08:58:41;15.65;;;13.07;;
32236;SDS011;18726;44.732;10.550;2024-02-21T09:01:45;14.73;;;13.38;;
32236;SDS011;18726;44.732;10.550;2024-02-21T09:04:49;14.75;;;13.13;;
32236;SDS011;18726;44.732;10.550;2024-02-21T09:07:52;15.05;;;13.50;;
32236;SDS011;18726;44.732;10.550;2024-02-21T09:10:56;17.92;;;14.63;;
32236;SDS011;18726;44.732;10.550;2024-02-21T09:14:00;15.85;;;13.52;;
32236;SDS011;18726;44.732;10.550;2024-02-21T09:17:04;17.45;;;15.27;;
32236;SDS011;18726;44.732;10.550;2024-02-21T09:20:07;21.90;;;15.15;;
32236;SDS011;18726;44.732;10.550;2024-02-21T09:23:11;18.25;;;16.00;;
32236;SDS011;18726;44.732;10.550;2024-02-21T09:26:15;20.67;;;15.60;;
32236;SDS011;18726;44.732;10.550;2024-02-21T09:29:20;17.88;;;16.00;;
32236;SDS011;18726;44.732;10.550;2024-02-21T09:32:23;18.63;;;16.83;;
32236;SDS011;18726;44.732;10.550;2024-02-21T09:35:27;20.15;;;16.23;;
32236;SDS011;18726;44.732;10.550;2024-02-21T09:38:31;18.60;;;16.75;;
32236;SDS011;18726;44.732;10.550;2024-02-21T09:41:36;18.85;;;16.92;;
32236;SDS011;18726;44.732;10.550;2024-02-21T09:44:45;18.58;;;16.80;;
32236;SDS011;18726;44.732;10.550;2024-02-21T09:47:53;21.90;;;19.77;;
32236;SDS011;18726;44.732;10.550;2024-02-21T09:51:09;19.65;;;17.85;;
32236;SDS011;18726;44.732;10.550;2024-02-21T09:54:13;18.83;;;16.92;;
32236;SDS011;18726;44.732;10.550;2024-02-21T09:57:17;20.58;;;18.42;;
32236;SDS011;18726;44.732;10.550;2024-02-21T10:00:21;19.75;;;17.75;;
32236;SDS011;18726;44.732;10.550;2024-02-21T10:03:25;21.42;;;19.08;;
32236;SDS011;18726;44.732;10.550;2024-02-21T10:06:29;21.35;;;17.52;;
32236;SDS011;18726;44.732;10.550;2024-02-21T10:09:32;24.33;;;21.30;;
32236;SDS011;18726;44.732;10.550;2024-02-21T10:12:36;20.02;;;17.95;;
32236;SDS011;18726;44.732;10.550;2024-02-21T10:15:40;20.10;;;18.17;;
32236;SDS011;18726;44.732;10.550;2024-02-21T10:18:43;21.70;;;19.45;;
32236;SDS011;18726;44.732;10.550;2024-02-21T10:25:10;23.58;;;21.20;;
32236;SDS011;18726;44.732;10.550;2024-02-21T10:28:16;26.42;;;23.63;;
32236;SDS011;18726;44.732;10.550;2024-02-21T10:31:22;26.60;;;23.98;;
32236;SDS011;18726;44.732;10.550;2024-02-21T10:34:27;27.92;;;24.00;;
32236;SDS011;18726;44.732;10.550;2024-02-21T10:37:31;31.63;;;28.48;;
32236;SDS011;18726;44.732;10.550;2024-02-21T10:40:37;28.67;;;25.60;;
32236;SDS011;18726;44.732;10.550;2024-02-21T10:43:41;30.85;;;27.52;;
32236;SDS011;18726;44.732;10.550;2024-02-21T10:46:52;30.70;;;27.42;;
32236;SDS011;18726;44.732;10.550;2024-02-21T10:50:06;36.22;;;32.20;;
32236;SDS011;18726;44.732;10.550;2024-02-21T10:53:18;41.95;;;36.33;;
32236;SDS011;18726;44.732;10.550;2024-02-21T10:56:29;38.30;;;33.72;;
32236;SDS011;18726;44.732;10.550;2024-02-21T10:59:44;43.08;;;31.45;;
32236;SDS011;18726;44.732;10.550;2024-02-21T11:02:49;45.00;;;40.10;;
32236;SDS011;18726;44.732;10.550;2024-02-21T11:05:53;40.05;;;35.67;;
32236;SDS011;18726;44.732;10.550;2024-02-21T11:12:07;40.10;;;35.00;;
32236;SDS011;18726;44.732;10.550;2024-02-21T11:15:12;48.58;;;33.50;;
32236;SDS011;18726;44.732;10.550;2024-02-21T11:18:23;39.83;;;33.45;;
32236;SDS011;18726;44.732;10.550;2024-02-21T11:21:32;39.25;;;34.03;;
32236;SDS011;18726;44.732;10.550;2024-02-21T11:24:39;47.58;;;41.83;;
32236;SDS011;18726;44.732;10.550;2024-02-21T11:27:46;42.75;;;38.13;;
32236;SDS011;18726;44.732;10.550;2024-02-21T11:30:50;52.53;;;41.42;;
32236;SDS011;18726;44.732;10.550;2024-02-21T11:33:54;44.50;;;38.72;;
32236;SDS011;18726;44.732;10.550;2024-02-21T11:36:58;46.58;;;39.42;;
32236;SDS011;18726;44.732;10.550;2024-02-21T11:40:02;46.33;;;39.35;;
32236;SDS011;18726;44.732;10.550;2024-02-21T11:43:07;54.47;;;44.90;;
32236;SDS011;18726;44.732;10.550;2024-02-21T11:46:10;53.70;;;47.85;;
32236;SDS011;18726;44.732;10.550;2024-02-21T11:49:14;59.25;;;50.47;;
32236;SDS011;18726;44.732;10.550;2024-02-21T11:52:18;61.25;;;50.03;;
32236;SDS011;18726;44.732;10.550;2024-02-21T11:55:28;60.35;;;53.20;;
32236;SDS011;18726;44.732;10.550;2024-02-21T11:58:32;56.90;;;50.08;;
32236;SDS011;18726;44.732;10.550;2024-02-21T12:01:36;68.30;;;57.38;;
32236;SDS011;18726;44.732;10.550;2024-02-21T12:04:39;62.25;;;52.13;;
32236;SDS011;18726;44.732;10.550;2024-02-21T12:07:43;57.22;;;47.92;;
32236;SDS011;18726;44.732;10.550;2024-02-21T12:10:47;59.90;;;50.42;;
32236;SDS011;18726;44.732;10.550;2024-02-21T12:20:09;49.53;;;42.70;;
32236;SDS011;18726;44.732;10.550;2024-02-21T12:23:14;60.55;;;51.38;;
32236;SDS011;18726;44.732;10.550;2024-02-21T12:26:19;70.78;;;56.75;;
32236;SDS011;18726;44.732;10.550;2024-02-21T12:29:23;69.07;;;53.67;;
32236;SDS011;18726;44.732;10.550;2024-02-21T12:32:28;54.75;;;46.55;;
32236;SDS011;18726;44.732;10.550;2024-02-21T12:35:31;46.53;;;41.10;;
32236;SDS011;18726;44.732;10.550;2024-02-21T12:38:36;55.70;;;47.10;;
32236;SDS011;18726;44.732;10.550;2024-02-21T12:41:40;57.28;;;47.03;;
32236;SDS011;18726;44.732;10.550;2024-02-21T12:44:44;61.22;;;50.80;;
32236;SDS011;18726;44.732;10.550;2024-02-21T12:47:49;59.33;;;50.25;;
32236;SDS011;18726;44.732;10.550;2024-02-21T12:50:52;58.58;;;48.63;;
32236;SDS011;18726;44.732;10.550;2024-02-21T12:53:56;61.05;;;50.45;;
32236;SDS011;18726;44.732;10.550;2024-02-21T12:56:59;57.10;;;47.45;;
32236;SDS011;18726;44.732;10.550;2024-02-21T13:00:06;56.13;;;48.85;;
32236;SDS011;18726;44.732;10.550;2024-02-21T13:03:12;63.13;;;54.47;;
32236;SDS011;18726;44.732;10.550;2024-02-21T13:06:16;59.88;;;49.95;;
32236;SDS011;18726;44.732;10.550;2024-02-21T13:09:19;63.00;;;52.65;;
32236;SDS011;18726;44.732;10.550;2024-02-21T13:12:23;56.60;;;48.35;;
32236;SDS011;18726;44.732;10.550;2024-02-21T13:15:29;58.80;;;50.55;;
32236;SDS011;18726;44.732;10.550;2024-02-21T13:18:34;55.85;;;49.28;;
32236;SDS011;18726;44.732;10.550;2024-02-21T13:21:38;65.68;;;55.42;;
32236;SDS011;18726;44.732;10.550;2024-02-21T13:24:42;62.45;;;51.70;;
32236;SDS011;18726;44.732;10.550;2024-02-21T13:27:45;58.70;;;48.80;;
32236;SDS011;18726;44.732;10.550;2024-02-21T13:30:49;65.45;;;53.63;;
32236;SDS011;18726;44.732;10.550;2024-02-21T13:33:52;67.18;;;56.75;;
32236;SDS011;18726;44.732;10.550;2024-02-21T13:36:56;62.88;;;52.83;;
32236;SDS011;18726;44.732;10.550;2024-02-21T13:40:00;56.03;;;49.72;;
32236;SDS011;18726;44.732;10.550;2024-02-21T13:43:03;60.58;;;49.45;;
32236;SDS011;18726;44.732;10.550;2024-02-21T13:46:07;61.20;;;52.97;;
32236;SDS011;18726;44.732;10.550;2024-02-21T13:49:13;58.72;;;48.20;;
32236;SDS011;18726;44.732;10.550;2024-02-21T13:52:16;60.22;;;50.63;;
32236;SDS011;18726;44.732;10.550;2024-02-21T13:55:20;56.25;;;47.42;;
32236;SDS011;18726;44.732;10.550;2024-02-21T13:58:25;57.35;;;48.65;;
32236;SDS011;18726;44.732;10.550;2024-02-21T14:01:29;54.25;;;47.85;;
32236;SDS011;18726;44.732;10.550;2024-02-21T14:04:35;76.57;;;51.88;;
32236;SDS011;18726;44.732;10.550;2024-02-21T14:07:39;52.58;;;44.03;;
32236;SDS011;18726;44.732;10.550;2024-02-21T14:10:42;57.03;;;47.13;;
32236;SDS011;18726;44.732;10.550;2024-02-21T14:13:45;60.95;;;48.60;;
32236;SDS011;18726;44.732;10.550;2024-02-21T14:16:49;58.75;;;47.92;;
32236;SDS011;18726;44.732;10.550;2024-02-21T14:19:53;54.30;;;44.13;;
32236;SDS011;18726;44.732;10.550;2024-02-21T14:22:57;47.10;;;41.28;;
32236;SDS011;18726;44.732;10.550;2024-02-21T14:26:02;59.72;;;42.88;;
32236;SDS011;18726;44.732;10.550;2024-02-21T14:29:06;52.78;;;43.67;;
32236;SDS011;18726;44.732;10.550;2024-02-21T14:32:10;61.50;;;49.08;;
32236;SDS011;18726;44.732;10.550;2024-02-21T14:35:16;65.95;;;49.10;;
32236;SDS011;18726;44.732;10.550;2024-02-21T14:38:20;55.35;;;45.63;;
32236;SDS011;18726;44.732;10.550;2024-02-21T14:41:24;48.45;;;40.20;;
32236;SDS011;18726;44.732;10.550;2024-02-21T14:44:28;58.50;;;47.75;;
32236;SDS011;18726;44.732;10.550;2024-02-21T14:47:31;54.75;;;45.40;;
32236;SDS011;18726;44.732;10.550;2024-02-21T14:50:36;57.17;;;46.45;;
32236;SDS011;18726;44.732;10.550;2024-02-21T14:53:40;54.88;;;45.00;;
32236;SDS011;18726;44.732;10.550;2024-02-21T14:56:43;52.65;;;42.45;;
32236;SDS011;18726;44.732;10.550;2024-02-21T14:59:49;51.22;;;42.53;;
32236;SDS011;18726;44.732;10.550;2024-02-21T15:02:56;51.20;;;41.40;;
32236;SDS011;18726;44.732;10.550;2024-02-21T15:06:00;53.92;;;44.10;;
32236;SDS011;18726;44.732;10.550;2024-02-21T15:09:05;57.08;;;42.22;;
32236;SDS011;18726;44.732;10.550;2024-02-21T15:12:10;47.58;;;40.65;;
32236;SDS011;18726;44.732;10.550;2024-02-21T15:15:14;53.10;;;43.42;;
32236;SDS011;18726;44.732;10.550;2024-02-21T15:18:20;62.58;;;48.50;;
32236;SDS011;18726;44.732;10.550;2024-02-21T15:21:24;52.53;;;43.00;;
32236;SDS011;18726;44.732;10.550;2024-02-21T15:24:28;58.25;;;51.15;;
32236;SDS011;18726;44.732;10.550;2024-02-21T15:27:31;63.08;;;49.53;;
32236;SDS011;18726;44.732;10.550;2024-02-21T15:30:35;52.15;;;39.38;;
32236;SDS011;18726;44.732;10.550;2024-02-21T15:33:39;54.90;;;44.33;;
32236;SDS011;18726;44.732;10.550;2024-02-21T15:36:43;55.42;;;42.78;;
32236;SDS011;18726;44.732;10.550;2024-02-21T15:39:47;52.95;;;42.63;;
32236;SDS011;18726;44.732;10.550;2024-02-21T15:42:51;56.60;;;42.38;;
32236;SDS011;18726;44.732;10.550;2024-02-21T15:45:55;55.35;;;40.45;;
32236;SDS011;18726;44.732;10.550;2024-02-21T15:48:58;55.38;;;44.63;;
32236;SDS011;18726;44.732;10.550;2024-02-21T15:52:01;48.80;;;38.42;;
32236;SDS011;18726;44.732;10.550;2024-02-21T15:55:06;52.20;;;40.47;;
32236;SDS011;18726;44.732;10.550;2024-02-21T15:58:20;48.17;;;40.63;;
32236;SDS011;18726;44.732;10.550;2024-02-21T16:01:25;46.35;;;38.25;;
32236;SDS011;18726;44.732;10.550;2024-02-21T16:04:29;51.83;;;44.78;;
32236;SDS011;18726;44.732;10.550;2024-02-21T16:07:34;52.97;;;40.83;;
32236;SDS011;18726;44.732;10.550;2024-02-21T16:10:38;55.38;;;45.45;;
32236;SDS011;18726;44.732;10.550;2024-02-21T16:13:45;60.58;;;45.25;;
32236;SDS011;18726;44.732;10.550;2024-02-21T16:16:49;50.05;;;42.20;;
32236;SDS011;18726;44.732;10.550;2024-02-21T16:19:53;54.05;;;43.03;;
32236;SDS011;18726;44.732;10.550;2024-02-21T16:22:56;65.05;;;46.38;;
32236;SDS011;18726;44.732;10.550;2024-02-21T16:26:06;53.15;;;44.50;;
32236;SDS011;18726;44.732;10.550;2024-02-21T16:29:09;51.88;;;41.88;;
32236;SDS011;18726;44.732;10.550;2024-02-21T16:32:13;66.55;;;50.20;;
32236;SDS011;18726;44.732;10.550;2024-02-21T16:35:18;56.45;;;43.95;;
32236;SDS011;18726;44.732;10.550;2024-02-21T16:38:22;52.08;;;40.10;;
32236;SDS011;18726;44.732;10.550;2024-02-21T16:41:26;67.45;;;47.97;;
32236;SDS011;18726;44.732;10.550;2024-02-21T16:44:33;61.38;;;48.00;;
32236;SDS011;18726;44.732;10.550;2024-02-21T16:47:37;58.67;;;46.30;;
32236;SDS011;18726;44.732;10.550;2024-02-21T16:50:41;65.15;;;45.83;;
32236;SDS011;18726;44.732;10.550;2024-02-21T16:53:45;54.50;;;45.00;;
32236;SDS011;18726;44.732;10.550;2024-02-21T16:56:48;62.28;;;48.28;;
32236;SDS011;18726;44.732;10.550;2024-02-21T16:59:52;62.38;;;48.42;;
32236;SDS011;18726;44.732;10.550;2024-02-21T17:02:56;59.13;;;46.80;;
32236;SDS011;18726;44.732;10.550;2024-02-21T17:06:00;68.18;;;50.90;;
32236;SDS011;18726;44.732;10.550;2024-02-21T17:09:04;57.33;;;45.22;;
32236;SDS011;18726;44.732;10.550;2024-02-21T17:12:08;59.05;;;46.80;;
32236;SDS011;18726;44.732;10.550;2024-02-21T17:15:11;54.03;;;43.60;;
32236;SDS011;18726;44.732;10.550;2024-02-21T17:18:16;66.47;;;49.15;;
32236;SDS011;18726;44.732;10.550;2024-02-21T17:21:20;80.60;;;55.88;;
32236;SDS011;18726;44.732;10.550;2024-02-21T17:24:24;78.65;;;56.58;;
32236;SDS011;18726;44.732;10.550;2024-02-21T17:27:27;85.75;;;63.97;;
32236;SDS011;18726;44.732;10.550;2024-02-21T17:30:32;77.10;;;60.35;;
32236;SDS011;18726;44.732;10.550;2024-02-21T17:33:38;87.75;;;61.92;;
32236;SDS011;18726;44.732;10.550;2024-02-21T17:36:42;85.18;;;60.72;;
32236;SDS011;18726;44.732;10.550;2024-02-21T17:39:45;87.07;;;59.95;;
32236;SDS011;18726;44.732;10.550;2024-02-21T17:42:49;76.82;;;57.53;;
32236;SDS011;18726;44.732;10.550;2024-02-21T17:45:53;80.82;;;57.13;;
32236;SDS011;18726;44.732;10.550;2024-02-21T17:48:59;85.10;;;56.03;;
32236;SDS011;18726;44.732;10.550;2024-02-21T17:52:04;79.40;;;55.53;;
32236;SDS011;18726;44.732;10.550;2024-02-21T17:55:08;78.97;;;53.90;;